createdAt,value
2023-04-04T00:00:35.911Z,103042.63
2023-04-04T00:03:02.924Z,103048.09
2023-04-04T00:05:29.871Z,103012.75
2023-04-04T00:07:56.697Z,103012.09
2023-04-04T00:10:23.588Z,103059.84
2023-04-04T00:12:50.307Z,103031.59
2023-04-04T00:15:19.358Z,102996.25
2023-04-04T00:17:46.100Z,103059.19
2023-04-04T00:20:15.238Z,103041.47
2023-04-04T00:22:42.406Z,103023.09
2023-04-04T00:28:50.634Z,103041.66
2023-04-04T00:31:18.091Z,103023.19
2023-04-04T00:33:44.697Z,103062.13
2023-04-04T00:36:11.705Z,103001.97
2023-04-04T00:38:38.381Z,103052.53
2023-04-04T00:41:07.684Z,103038.25
2023-04-04T00:43:35.408Z,103040.03
2023-04-04T00:46:02.414Z,103052.47
2023-04-04T00:48:29.880Z,103054.28
2023-04-04T00:50:56.984Z,103024.22
2023-04-04T00:53:23.752Z,103044.63
2023-04-04T00:55:50.639Z,103059.75
2023-04-04T00:58:19.905Z,102687.72
2023-04-04T01:00:47.031Z,103046.34
2023-04-04T01:03:14.391Z,103046.34
2023-04-04T01:05:41.942Z,103041.03
2023-04-04T01:08:08.801Z,103040.28
2023-04-04T01:10:35.791Z,103022.63
2023-04-04T01:13:04.878Z,103030.56
2023-04-04T01:15:31.628Z,103028.84
2023-04-04T01:18:02.406Z,103028.00
2023-04-04T01:20:32.951Z,103024.56
2023-04-04T01:23:01.999Z,103028.09
2023-04-04T01:25:34.887Z,103030.81
2023-04-04T01:28:01.738Z,103036.16
2023-04-04T01:30:35.010Z,103026.34
2023-04-04T01:33:11.000Z,103015.03
2023-04-04T01:35:51.738Z,103018.56
2023-04-04T01:38:58.655Z,103035.56
2023-04-04T01:41:26.323Z,103008.06
2023-04-04T01:43:56.196Z,103014.28
2023-04-04T01:46:25.620Z,103023.16
2023-04-04T01:48:55.294Z,102975.38
2023-04-04T01:51:24.722Z,103018.78
2023-04-04T01:53:51.394Z,103000.25
2023-04-04T01:56:18.532Z,103020.66
2023-04-04T01:58:45.229Z,103024.31
2023-04-04T02:01:11.929Z,103016.28
2023-04-04T02:03:38.676Z,103019.78
2023-04-04T02:06:05.942Z,103016.25
2023-04-04T02:08:32.541Z,102991.63
2023-04-04T02:10:59.397Z,103013.69
2023-04-04T02:13:26.177Z,103003.19
2023-04-04T02:15:56.116Z,103020.97
2023-04-04T02:18:26.060Z,103027.28
2023-04-04T02:20:57.659Z,102930.22
2023-04-04T02:23:24.657Z,102810.25
2023-04-04T02:25:52.010Z,103048.06
2023-04-04T02:28:19.326Z,103047.25
2023-04-04T02:30:46.175Z,103043.72
2023-04-04T02:33:12.980Z,103041.97
2023-04-04T02:35:39.742Z,103010.22
2023-04-04T02:38:06.721Z,103043.00
2023-04-04T02:40:33.293Z,103032.25
2023-04-04T02:42:59.955Z,103034.97
2023-04-04T02:45:26.754Z,103008.28
2023-04-04T02:47:53.551Z,103003.13
2023-04-04T02:50:20.312Z,103026.16
2023-04-04T02:52:47.051Z,103020.81
2023-04-04T02:55:13.821Z,103023.59
2023-04-04T02:57:40.770Z,103030.69
2023-04-04T03:00:08.237Z,102999.63
2023-04-04T03:02:35.205Z,102958.94
2023-04-04T03:05:07.084Z,103015.63
2023-04-04T03:07:38.409Z,103020.16
2023-04-04T03:10:07.695Z,103001.66
2023-04-04T03:12:34.428Z,103013.19
2023-04-04T03:15:04.743Z,103019.44
2023-04-04T03:17:31.922Z,103006.19
2023-04-04T03:19:58.626Z,103003.56
2023-04-04T03:22:25.371Z,102679.25
2023-04-04T03:24:54.448Z,103019.50
2023-04-04T03:27:23.253Z,103012.34
2023-04-04T03:29:53.012Z,103012.38
2023-04-04T03:32:19.640Z,103013.34
2023-04-04T03:34:48.599Z,103012.44
2023-04-04T03:37:15.179Z,103015.16
2023-04-04T03:39:44.061Z,102977.94
2023-04-04T03:42:11.110Z,103002.78
2023-04-04T03:44:41.784Z,102998.38
2023-04-04T03:47:08.645Z,102994.88
2023-04-04T03:49:35.367Z,102885.16
2023-04-04T03:52:04.973Z,102960.38
2023-04-04T03:54:31.584Z,103007.47
2023-04-04T03:56:58.520Z,103000.38
2023-04-04T03:59:25.608Z,102982.78
2023-04-04T04:01:52.672Z,102960.69
2023-04-04T04:04:19.424Z,103000.53
2023-04-04T04:06:49.034Z,102998.75
2023-04-04T04:09:16.071Z,102979.34
2023-04-04T04:11:43.056Z,102996.16
2023-04-04T04:14:09.649Z,102993.53
2023-04-04T04:16:40.299Z,102973.22
2023-04-04T04:19:07.100Z,102984.75
2023-04-04T04:21:33.774Z,102983.06
2023-04-04T04:24:00.491Z,102989.41
2023-04-04T04:26:27.343Z,102990.31
2023-04-04T04:28:54.240Z,102996.59
2023-04-04T04:31:23.377Z,102985.06
2023-04-04T04:33:52.673Z,102999.25
2023-04-04T04:36:19.408Z,102993.09
2023-04-04T04:38:50.916Z,102966.56
2023-04-04T04:41:17.667Z,102971.97
2023-04-04T04:43:44.368Z,102987.13
2023-04-04T04:46:11.331Z,103010.13
2023-04-04T04:48:37.996Z,103019.06
2023-04-04T04:51:06.892Z,102934.97
2023-04-04T04:53:33.665Z,103017.34
2023-04-04T04:56:00.398Z,103018.22
2023-04-04T04:58:28.630Z,103020.03
2023-04-04T05:00:59.673Z,102997.91
2023-04-04T05:03:26.526Z,103020.09
2023-04-04T05:05:53.483Z,103024.50
2023-04-04T05:08:20.166Z,103003.25
2023-04-04T05:10:49.042Z,102999.75
2023-04-04T05:13:15.704Z,102985.56
2023-04-04T05:15:48.761Z,103027.19
2023-04-04T05:18:25.030Z,102997.94
2023-04-04T05:20:56.563Z,102924.53
2023-04-04T05:23:26.555Z,103025.34
2023-04-04T05:25:55.844Z,103003.16
2023-04-04T05:28:23.782Z,103024.38
2023-04-04T05:30:50.518Z,103016.34
2023-04-04T05:33:17.369Z,103021.69
2023-04-04T05:35:51.989Z,103030.44
2023-04-04T05:38:23.265Z,103025.88
2023-04-04T05:40:49.928Z,102945.31
2023-04-04T05:43:17.969Z,103036.47
2023-04-04T05:45:44.853Z,103017.75
2023-04-04T05:48:11.943Z,103024.63
2023-04-04T05:50:42.344Z,103028.09
2023-04-04T05:53:13.045Z,103033.31
2023-04-04T05:55:39.774Z,103014.50
2023-04-04T05:58:07.341Z,103032.06
2023-04-04T06:00:35.466Z,103030.22
2023-04-04T06:03:04.445Z,102998.72
2023-04-04T06:05:32.060Z,103033.41
2023-04-04T06:08:02.118Z,103031.25
2023-04-04T06:10:43.455Z,103009.06
2023-04-04T06:13:19.503Z,103012.13
2023-04-04T06:16:03.076Z,102996.84
2023-04-04T06:18:38.712Z,103024.09
2023-04-04T06:21:11.342Z,102987.31
2023-04-04T06:23:47.255Z,103029.84
2023-04-04T06:26:17.024Z,103034.38
2023-04-04T06:28:52.021Z,103026.19
2023-04-04T06:31:18.934Z,103039.16
2023-04-04T06:33:48.976Z,103037.53
2023-04-04T06:36:16.500Z,103042.00
2023-04-04T06:38:43.346Z,103046.88
2023-04-04T06:41:12.476Z,102984.06
2023-04-04T06:43:41.812Z,103045.63
2023-04-04T06:46:09.427Z,103024.03
2023-04-04T06:48:36.671Z,103031.69
2023-04-04T06:51:09.128Z,103031.34
2023-04-04T06:53:36.875Z,103029.75
2023-04-04T06:56:06.232Z,103016.75
2023-04-04T06:58:35.869Z,102988.69
2023-04-04T07:01:02.639Z,102994.34
2023-04-04T07:03:30.169Z,103037.63
2023-04-04T07:05:57.219Z,103029.53
2023-04-04T07:08:24.308Z,103037.91
2023-04-04T07:10:51.610Z,103028.78
2023-04-04T07:13:20.616Z,103034.16
2023-04-04T07:15:50.682Z,102775.75
2023-04-04T07:18:19.587Z,102999.25
2023-04-04T07:20:54.528Z,103031.06
2023-04-04T07:23:21.272Z,103003.53
2023-04-04T07:25:50.356Z,103027.75
2023-04-04T07:28:17.343Z,103023.09
2023-04-04T07:30:46.176Z,103034.84
2023-04-04T07:33:13.447Z,103015.41
2023-04-04T07:35:43.002Z,103021.06
2023-04-04T07:38:10.342Z,103032.63
2023-04-04T07:40:39.670Z,103007.91
2023-04-04T07:43:06.780Z,103023.94
2023-04-04T07:45:38.663Z,103016.16
2023-04-04T07:48:05.686Z,103000.91
2023-04-04T07:50:32.369Z,103008.72
2023-04-04T07:53:03.902Z,102902.13
2023-04-04T07:55:30.600Z,103024.84
2023-04-04T07:57:58.478Z,102834.84
2023-04-04T08:00:26.596Z,103017.34
2023-04-04T08:02:54.545Z,103004.56
2023-04-04T08:05:21.667Z,102987.00
2023-04-04T08:07:50.532Z,102987.69
2023-04-04T08:10:17.905Z,103011.06
2023-04-04T08:12:45.258Z,103016.25
2023-04-04T08:15:12.314Z,103012.78
2023-04-04T08:17:39.265Z,103011.66
2023-04-04T08:20:06.522Z,103001.56
2023-04-04T08:22:33.815Z,102981.50
2023-04-04T08:25:00.872Z,102996.06
2023-04-04T08:27:29.962Z,103014.72
2023-04-04T08:29:58.787Z,103001.75
2023-04-04T08:32:25.376Z,102978.38
2023-04-04T08:34:52.158Z,102980.97
2023-04-04T08:37:21.257Z,103000.19
2023-04-04T08:39:47.866Z,102989.00
2023-04-04T08:42:17.624Z,102988.34
2023-04-04T08:44:50.820Z,103001.44
2023-04-04T08:47:21.442Z,102994.56
2023-04-04T08:49:49.783Z,102977.97
2023-04-04T08:52:21.870Z,102997.38
2023-04-04T08:54:52.676Z,102984.44
2023-04-04T08:57:22.289Z,102989.81
2023-04-04T08:59:49.346Z,102994.88
2023-04-04T09:02:38.548Z,103001.25
2023-04-04T09:05:08.796Z,103002.28
2023-04-04T09:07:38.538Z,102971.13
2023-04-04T09:10:09.378Z,102898.59
2023-04-04T09:12:39.493Z,102968.53
2023-04-04T09:15:09.993Z,102986.09
2023-04-04T09:17:37.558Z,102915.53
2023-04-04T09:20:24.521Z,103012.09
2023-04-04T09:22:51.512Z,103003.34
2023-04-04T09:25:18.694Z,103004.84
2023-04-04T09:27:45.791Z,102997.94
2023-04-04T09:30:12.510Z,102983.41
2023-04-04T09:32:39.153Z,103003.03
2023-04-04T09:35:06.463Z,102997.47
2023-04-04T09:37:33.453Z,102990.94
2023-04-04T09:40:01.546Z,103002.25
2023-04-04T09:45:13.238Z,102994.72
2023-04-04T09:47:49.709Z,103002.94
2023-04-04T09:50:23.597Z,102997.38
2023-04-04T09:52:50.972Z,103004.47
2023-04-04T09:55:20.045Z,102978.72
2023-04-04T09:57:47.562Z,102991.47
2023-04-04T10:00:23.177Z,102997.78
2023-04-04T10:02:53.317Z,102980.06
2023-04-04T10:05:20.747Z,102985.88
2023-04-04T10:07:49.015Z,102969.13
2023-04-04T10:10:18.243Z,102998.78
2023-04-04T10:12:48.171Z,102964.75
2023-04-04T10:15:16.451Z,102990.88
2023-04-04T10:17:44.279Z,102983.13
2023-04-04T10:20:11.485Z,102984.84
2023-04-04T10:22:38.911Z,102981.59
2023-04-04T10:25:07.302Z,102984.66
2023-04-04T10:27:34.478Z,102981.00
2023-04-04T10:30:01.721Z,102952.25
2023-04-04T10:32:51.621Z,102973.44
2023-04-04T10:35:22.772Z,102956.88
2023-04-04T10:38:02.024Z,102968.25
2023-04-04T10:40:39.020Z,102969.03
2023-04-04T10:43:09.747Z,102976.44
2023-04-04T10:45:40.235Z,102970.03
2023-04-04T10:48:10.514Z,102950.44
2023-04-04T10:50:39.393Z,102946.69
2023-04-04T10:53:07.577Z,102948.31
2023-04-04T10:55:35.590Z,102953.53
2023-04-04T10:58:04.924Z,102948.50
2023-04-04T11:00:31.624Z,102920.63
2023-04-04T11:03:02.055Z,102950.25
2023-04-04T11:05:47.483Z,102919.66
2023-04-04T11:08:25.409Z,102947.97
2023-04-04T11:10:53.998Z,102941.22
2023-04-04T11:13:26.224Z,102927.50
2023-04-04T11:16:08.158Z,102937.72
2023-04-04T11:18:41.778Z,102935.84
2023-04-04T11:21:19.932Z,102929.38
2023-04-04T11:23:49.847Z,102928.22
2023-04-04T11:26:37.508Z,102938.34
2023-04-04T11:29:05.392Z,102938.16
2023-04-04T11:31:40.739Z,102927.50
2023-04-04T11:34:14.113Z,102921.56
2023-04-04T11:36:41.493Z,102919.06
2023-04-04T11:39:10.982Z,102922.75
2023-04-04T11:41:52.770Z,102913.72
2023-04-04T11:44:22.470Z,102884.72
2023-04-04T11:46:54.787Z,102911.53
2023-04-04T11:49:27.570Z,102904.03
2023-04-04T11:51:54.437Z,102907.31
2023-04-04T11:54:21.147Z,102902.75
2023-04-04T11:56:48.213Z,102893.91
2023-04-04T11:59:20.072Z,102829.03
2023-04-04T13:31:29.569Z,102792.13
2023-04-04T13:33:56.130Z,102787.00
2023-04-04T13:36:22.701Z,102791.19
2023-04-04T13:38:49.404Z,102763.66
2023-04-04T13:41:16.034Z,102777.72
2023-04-04T13:43:42.587Z,102766.47
2023-04-04T13:46:09.590Z,102718.94
2023-04-04T13:48:36.248Z,102761.44
2023-04-04T13:51:02.858Z,102754.59
2023-04-04T13:53:34.004Z,102763.31
2023-04-04T13:56:17.964Z,102751.38
2023-04-04T13:58:48.273Z,102756.84
2023-04-04T14:01:17.465Z,102737.41
2023-04-04T14:03:44.180Z,102751.97
2023-04-04T14:06:12.969Z,102747.47
2023-04-04T14:08:41.849Z,102736.31
2023-04-04T14:11:08.501Z,102727.91
2023-04-04T14:13:36.406Z,102733.03
2023-04-04T14:16:03.316Z,102708.00
2023-04-04T14:18:29.924Z,102713.34
2023-04-04T14:20:56.868Z,102726.97
2023-04-04T14:23:25.910Z,102709.72
2023-04-04T14:25:52.725Z,102705.38
2023-04-04T14:28:24.727Z,102686.47
2023-04-04T14:30:51.635Z,102720.13
2023-04-04T14:33:18.420Z,102703.50
2023-04-04T14:35:45.095Z,102703.72
2023-04-04T14:38:13.910Z,102649.44
2023-04-04T14:40:45.361Z,102707.88
2023-04-04T14:43:11.985Z,102706.88
2023-04-04T14:45:38.890Z,102692.47
2023-04-04T14:48:05.846Z,102693.88
2023-04-04T14:50:32.412Z,102698.16
2023-04-04T14:52:59.055Z,102695.41
2023-04-04T14:55:28.090Z,102699.69
2023-04-04T14:58:01.960Z,102701.28
2023-04-04T15:00:29.828Z,102684.59
2023-04-04T15:02:56.575Z,102694.22
2023-04-04T15:05:24.954Z,102688.75
2023-04-04T15:07:51.554Z,102685.66
2023-04-04T15:10:18.188Z,102665.59
2023-04-04T15:12:44.795Z,102685.03
2023-04-04T15:15:13.240Z,102672.72
2023-04-04T15:17:44.902Z,102679.69
2023-04-04T15:20:12.067Z,102681.03
2023-04-04T15:22:39.857Z,102687.03
2023-04-04T15:25:08.414Z,102679.69
2023-04-04T15:27:35.433Z,102679.34
2023-04-04T15:30:02.144Z,102675.88
2023-04-04T15:32:28.836Z,102661.44
2023-04-04T15:34:58.523Z,102653.91
2023-04-04T15:37:25.996Z,102654.78
2023-04-04T15:39:53.880Z,102661.13
2023-04-04T15:42:21.340Z,102653.91
2023-04-04T15:44:47.980Z,102656.22
2023-04-04T15:47:16.796Z,102652.03
2023-04-04T15:49:43.512Z,102656.53
2023-04-04T15:52:12.418Z,102650.97
2023-04-04T15:54:41.529Z,102657.63
2023-04-04T15:57:08.228Z,102652.16
2023-04-04T15:59:34.952Z,102643.84
2023-04-04T16:02:04.761Z,102637.63
2023-04-04T16:04:31.335Z,102640.25
2023-04-04T16:06:57.890Z,102637.09
2023-04-04T16:09:24.889Z,102630.97
2023-04-04T16:11:51.757Z,102611.88
2023-04-04T16:14:18.493Z,102630.97
2023-04-04T16:16:45.095Z,102628.03
2023-04-04T16:21:41.855Z,102624.50
2023-04-04T16:24:08.906Z,102619.84
2023-04-04T16:26:35.880Z,102624.19
2023-04-04T16:29:05.818Z,102618.38
2023-04-04T16:31:34.971Z,102619.69
2023-04-04T16:34:03.902Z,102618.69
2023-04-04T16:36:31.044Z,102619.25
2023-04-04T16:39:02.615Z,102619.16
2023-04-04T16:41:29.347Z,102612.41
2023-04-04T16:43:56.014Z,102608.22
2023-04-04T16:46:22.623Z,102605.41
2023-04-04T16:48:51.686Z,102612.94
2023-04-04T16:51:18.278Z,102612.75
2023-04-04T16:53:47.084Z,102615.69
2023-04-04T16:56:13.653Z,102609.91
2023-04-04T16:58:40.571Z,102611.53
2023-04-04T17:01:12.321Z,102607.91
2023-04-04T17:03:38.946Z,102586.88
2023-04-04T17:06:06.643Z,102599.31
2023-04-04T17:08:33.246Z,102604.13
2023-04-04T17:10:59.967Z,102597.22
2023-04-04T17:13:29.294Z,102594.97
2023-04-04T17:16:01.043Z,102576.81
2023-04-04T17:18:27.705Z,102581.53
2023-04-04T17:20:54.322Z,102590.25
2023-04-04T17:23:20.966Z,102577.25
2023-04-04T17:25:47.556Z,102592.88
2023-04-04T17:28:14.099Z,102584.25
2023-04-04T17:30:41.501Z,102589.06
2023-04-04T17:33:23.668Z,102573.97
2023-04-04T17:35:50.377Z,102584.13
2023-04-04T17:38:16.907Z,102582.38
2023-04-04T17:40:46.634Z,102571.31
2023-04-04T17:43:13.257Z,102582.44
2023-04-04T17:45:39.818Z,102589.66
2023-04-04T17:48:06.665Z,102593.56
2023-04-04T17:50:33.215Z,102588.63
2023-04-04T17:53:02.169Z,102571.69
2023-04-04T17:55:29.191Z,102571.88
2023-04-04T17:57:57.194Z,102590.53
2023-04-04T18:00:24.138Z,102595.44
2023-04-04T18:02:50.851Z,102590.38
2023-04-04T18:05:17.995Z,102591.28
2023-04-04T18:07:44.651Z,102507.47
2023-04-04T18:10:11.543Z,102580.34
2023-04-04T18:12:39.204Z,102551.22
2023-04-04T18:15:08.582Z,102591.75
2023-04-04T18:17:35.351Z,102581.00
2023-04-04T18:20:05.520Z,102587.84
2023-04-04T18:22:33.396Z,102578.53
2023-04-04T18:25:02.567Z,102561.16
2023-04-04T18:27:29.129Z,102584.47
2023-04-04T18:29:55.771Z,102586.25
2023-04-04T18:32:26.417Z,102575.19
2023-04-04T18:34:55.817Z,102582.22
2023-04-04T18:37:22.406Z,102590.78
2023-04-04T18:39:49.000Z,102574.44
2023-04-04T18:42:15.687Z,102587.78
2023-04-04T18:44:42.323Z,102590.03
2023-04-04T18:47:09.121Z,102595.19
2023-04-04T18:49:36.439Z,102598.50
2023-04-04T18:52:03.156Z,102589.44
2023-04-04T18:54:30.318Z,102605.69
2023-04-04T18:57:00.711Z,102606.75
2023-04-04T18:59:27.398Z,102608.88
2023-04-04T19:01:54.278Z,102602.56
2023-04-04T19:04:24.163Z,102598.56
2023-04-04T19:06:53.978Z,102608.22
2023-04-04T19:09:21.266Z,102612.06
2023-04-04T19:11:52.727Z,102613.19
2023-04-04T19:14:19.592Z,102612.78
2023-04-04T19:16:48.444Z,102605.19
2023-04-04T19:19:15.024Z,102590.06
2023-04-04T19:21:42.289Z,102601.25
2023-04-04T19:24:08.940Z,102614.03
2023-04-04T19:26:35.544Z,102603.72
2023-04-04T19:29:04.347Z,102620.81
2023-04-04T19:31:36.034Z,102620.88
2023-04-04T19:34:03.790Z,102621.50
2023-04-04T19:36:35.906Z,102619.22
2023-04-04T19:39:02.648Z,102628.47
2023-04-04T19:41:36.614Z,102627.88
2023-04-04T19:44:04.276Z,102591.63
2023-04-04T19:46:34.785Z,102624.19
2023-04-04T19:49:03.794Z,102623.50
2023-04-04T19:51:38.620Z,102620.63
2023-04-04T19:54:09.325Z,102624.94
2023-04-04T19:56:36.326Z,102625.47
2023-04-04T19:59:06.205Z,102629.13
2023-04-04T20:01:34.914Z,102625.63
2023-04-04T20:04:09.638Z,102620.38
2023-04-04T20:06:38.362Z,102617.81
2023-04-04T20:09:13.148Z,102596.09
2023-04-04T20:11:39.909Z,102599.72
2023-04-04T20:14:08.337Z,102608.63
2023-04-04T20:16:35.806Z,102607.34
2023-04-04T20:19:12.439Z,102607.34
2023-04-04T20:21:41.840Z,102607.59
2023-04-04T20:24:09.368Z,102610.66
2023-04-04T20:26:38.832Z,102607.25
2023-04-04T20:29:16.056Z,102609.84
2023-04-04T20:31:52.576Z,102585.94
2023-04-04T20:34:33.496Z,102604.63
2023-04-04T20:37:03.416Z,102589.09
2023-04-04T20:39:46.799Z,102609.78
2023-04-04T20:42:31.260Z,102602.13
2023-04-04T20:45:01.059Z,102607.72
2023-04-04T20:47:51.130Z,102606.41
2023-04-04T20:50:17.965Z,102605.53
2023-04-04T20:52:59.931Z,102597.72
2023-04-04T20:55:30.731Z,102593.41
2023-04-04T20:58:06.141Z,102584.97
2023-04-04T21:00:33.656Z,102610.75
2023-04-04T21:03:02.539Z,102602.25
2023-04-04T21:05:34.161Z,102608.47
2023-04-04T21:08:04.621Z,102614.81
2023-04-04T21:10:37.298Z,102607.84
2023-04-04T21:13:05.651Z,102601.94
2023-04-04T21:15:38.779Z,102613.66
2023-04-04T21:18:12.151Z,102598.94
2023-04-04T21:20:48.018Z,102609.34
2023-04-04T21:23:30.711Z,102616.78
2023-04-04T21:26:02.653Z,102613.34
2023-04-04T21:28:38.859Z,102550.47
2023-04-04T21:31:16.235Z,102599.09
2023-04-04T21:33:47.903Z,102610.72
2023-04-04T21:36:23.832Z,102609.78
2023-04-04T21:38:52.407Z,102607.22
2023-04-04T21:41:32.642Z,102607.53
2023-04-04T21:44:01.977Z,102611.03
2023-04-04T21:46:33.396Z,102601.47
2023-04-04T21:49:02.862Z,102594.78
2023-04-04T21:51:29.678Z,102591.59
2023-04-04T21:53:57.032Z,102590.44
2023-04-04T21:56:27.565Z,102596.91
2023-04-04T21:58:57.276Z,102596.41
2023-04-04T22:01:27.262Z,102595.72
2023-04-04T22:03:56.396Z,102595.00
2023-04-04T22:06:25.401Z,102586.47
2023-04-04T22:08:54.570Z,102575.94
2023-04-04T22:11:21.177Z,102582.31
2023-04-04T22:13:49.252Z,102580.63
2023-04-04T22:16:19.720Z,102579.75
2023-04-04T22:18:48.226Z,102557.66
2023-04-04T22:21:16.243Z,102568.50
2023-04-04T22:23:43.012Z,102566.00
2023-04-04T22:26:13.956Z,102551.09
2023-04-04T22:28:42.171Z,102567.50
2023-04-04T22:31:09.383Z,102565.00
2023-04-04T22:33:35.951Z,102529.81
2023-04-04T22:36:03.584Z,102557.38
2023-04-04T22:38:30.376Z,102554.31
2023-04-04T22:41:00.186Z,102566.69
2023-04-04T22:43:29.173Z,102557.81
2023-04-04T22:45:56.018Z,102555.56
2023-04-04T22:48:25.538Z,102560.16
2023-04-04T22:50:55.810Z,102558.69
2023-04-04T22:53:26.701Z,102561.69
2023-04-04T22:55:59.856Z,102553.78
2023-04-04T22:58:26.723Z,102532.06
2023-04-04T23:00:56.061Z,102555.09
2023-04-04T23:03:22.843Z,102548.34
2023-04-04T23:05:55.456Z,102537.94
2023-04-04T23:08:24.499Z,102554.97
2023-04-04T23:10:53.742Z,102563.06
2023-04-04T23:13:20.838Z,102543.16
2023-04-04T23:15:47.608Z,102559.97
2023-04-04T23:18:14.442Z,102540.47
2023-04-04T23:20:44.807Z,102544.22
2023-04-04T23:23:13.937Z,102559.31
2023-04-04T23:25:40.609Z,102504.91
2023-04-04T23:28:09.940Z,102537.28
2023-04-04T23:30:36.905Z,102540.06
2023-04-04T23:33:03.947Z,102523.56
2023-04-04T23:35:33.178Z,102533.13
2023-04-04T23:38:02.341Z,102522.09
2023-04-04T23:40:29.042Z,102533.63
2023-04-04T23:42:55.898Z,102512.75
2023-04-04T23:45:26.307Z,102532.28
2023-04-04T23:47:53.728Z,102487.59
2023-04-04T23:50:20.541Z,102520.16
2023-04-04T23:52:49.440Z,102502.81
2023-04-04T23:55:17.193Z,102527.59
2023-04-04T23:57:47.124Z,102531.38
